createdAt,value
2022-07-28T00:02:05.987Z,16.27
2022-07-28T00:04:34.007Z,16.18
2022-07-28T00:07:00.858Z,16.47
2022-07-28T00:09:27.840Z,16.65
2022-07-28T00:11:55.096Z,16.53
2022-07-28T00:14:22.608Z,16.34
2022-07-28T00:16:49.573Z,16.20
2022-07-28T00:19:16.528Z,16.25
2022-07-28T00:21:43.327Z,16.26
2022-07-28T00:24:10.281Z,16.34
2022-07-28T00:26:37.479Z,16.48
2022-07-28T00:29:05.848Z,16.36
2022-07-28T00:31:32.540Z,16.14
2022-07-28T00:33:59.528Z,16.33
2022-07-28T00:36:26.182Z,16.47
2022-07-28T00:38:53.325Z,16.47
2022-07-28T00:41:20.593Z,16.47
2022-07-28T00:43:49.132Z,16.58
2022-07-28T00:46:18.130Z,16.47
2022-07-28T00:48:49.223Z,16.61
2022-07-28T00:51:17.562Z,16.75
2022-07-28T00:53:45.662Z,16.40
2022-07-28T00:56:12.901Z,16.19
2022-07-28T00:58:40.515Z,16.24
2022-07-28T01:01:11.733Z,16.01
2022-07-28T01:03:41.880Z,16.09
2022-07-28T01:06:26.195Z,16.23
2022-07-28T01:09:03.316Z,16.49
2022-07-28T01:11:43.027Z,16.02
2022-07-28T01:14:18.077Z,16.00
2022-07-28T01:16:59.918Z,16.22
2022-07-28T01:19:39.633Z,16.20
2022-07-28T01:22:10.625Z,16.07
2022-07-28T01:24:48.531Z,15.94
2022-07-28T01:27:37.759Z,16.21
2022-07-28T01:30:07.911Z,16.20
2022-07-28T01:32:50.650Z,16.29
2022-07-28T01:35:24.851Z,16.37
2022-07-28T01:37:55.516Z,16.29
2022-07-28T01:40:27.343Z,16.38
2022-07-28T01:43:01.548Z,16.32
2022-07-28T01:45:29.664Z,16.16
2022-07-28T01:48:00.110Z,16.32
2022-07-28T01:50:28.574Z,15.93
2022-07-28T01:52:57.888Z,16.04
2022-07-28T01:55:26.077Z,15.87
2022-07-28T01:57:55.422Z,15.84
2022-07-28T02:00:24.105Z,15.81
2022-07-28T02:02:53.403Z,15.80
2022-07-28T02:05:22.341Z,15.88
2022-07-28T02:07:51.124Z,15.67
2022-07-28T02:10:19.151Z,15.64
2022-07-28T02:12:48.041Z,15.66
2022-07-28T02:15:15.805Z,15.77
2022-07-28T02:17:45.042Z,15.78
2022-07-28T02:20:13.266Z,15.72
2022-07-28T02:22:41.578Z,15.81
2022-07-28T02:25:08.932Z,15.73
2022-07-28T02:27:35.518Z,15.55
2022-07-28T02:30:18.889Z,15.47
2022-07-28T02:32:50.571Z,15.44
2022-07-28T02:35:44.841Z,15.62
2022-07-28T02:38:22.698Z,15.90
2022-07-28T02:40:53.579Z,15.76
2022-07-28T02:43:26.927Z,15.79
2022-07-28T02:46:16.342Z,15.41
2022-07-28T02:48:47.271Z,15.14
2022-07-28T02:51:16.124Z,15.25
2022-07-28T02:53:43.446Z,15.20
2022-07-28T02:56:11.698Z,15.21
2022-07-28T02:58:39.474Z,15.07
2022-07-28T03:01:06.533Z,15.24
2022-07-28T03:03:33.915Z,15.01
2022-07-28T03:06:00.633Z,15.09
2022-07-28T03:08:27.259Z,15.29
2022-07-28T03:11:11.597Z,15.34
2022-07-28T03:13:39.423Z,15.21
2022-07-28T03:16:06.682Z,14.98
2022-07-28T03:18:33.463Z,14.81
2022-07-28T03:21:00.411Z,14.97
2022-07-28T03:23:32.959Z,14.91
2022-07-28T03:26:05.691Z,14.72
2022-07-28T03:28:33.592Z,14.50
2022-07-28T03:31:08.073Z,14.44
2022-07-28T03:33:35.197Z,14.57
2022-07-28T03:36:08.647Z,14.61
2022-07-28T03:38:51.611Z,14.25
2022-07-28T03:41:18.769Z,14.33
2022-07-28T03:43:46.285Z,14.55
2022-07-28T03:46:13.557Z,14.64
2022-07-28T03:48:40.399Z,14.58
2022-07-28T03:51:07.049Z,14.71
2022-07-28T03:53:34.164Z,14.72
2022-07-28T03:56:00.952Z,14.74
2022-07-28T03:58:28.453Z,14.90
2022-07-28T04:00:56.748Z,15.07
2022-07-28T04:03:42.296Z,14.82
2022-07-28T04:06:13.802Z,14.48
2022-07-28T04:08:41.089Z,14.67
2022-07-28T04:11:07.862Z,14.71
2022-07-28T04:13:36.769Z,14.94
2022-07-28T04:16:04.465Z,14.74
2022-07-28T04:18:31.141Z,14.53
2022-07-28T04:20:57.708Z,14.47
2022-07-28T04:23:24.827Z,14.64
2022-07-28T04:25:51.617Z,14.46
2022-07-28T04:28:18.423Z,14.50
2022-07-28T04:30:45.121Z,14.54
2022-07-28T04:33:12.915Z,14.53
2022-07-28T04:35:39.616Z,14.57
2022-07-28T04:38:06.349Z,14.80
2022-07-28T04:40:34.299Z,15.12
2022-07-28T04:43:01.028Z,15.30
2022-07-28T04:45:27.684Z,15.40
2022-07-28T04:47:54.399Z,15.18
2022-07-28T04:50:21.558Z,15.16
2022-07-28T04:52:57.538Z,15.28
2022-07-28T04:55:24.702Z,15.21
2022-07-28T04:57:51.520Z,15.10
2022-07-28T05:00:18.439Z,15.27
2022-07-28T05:02:46.232Z,15.49
2022-07-28T05:05:13.243Z,15.40
2022-07-28T05:07:40.919Z,15.48
2022-07-28T05:10:10.025Z,15.36
2022-07-28T05:12:37.015Z,15.31
2022-07-28T05:15:05.478Z,15.34
2022-07-28T05:17:32.067Z,15.29
2022-07-28T05:19:58.650Z,15.30
2022-07-28T05:22:25.329Z,15.44
2022-07-28T05:24:51.985Z,15.47
2022-07-28T05:27:18.568Z,15.38
2022-07-28T05:29:47.352Z,15.35
2022-07-28T05:32:16.357Z,15.59
2022-07-28T05:34:45.369Z,15.65
2022-07-28T05:37:12.171Z,15.68
2022-07-28T05:39:39.311Z,15.71
2022-07-28T05:42:06.250Z,15.83
2022-07-28T05:44:37.974Z,15.76
2022-07-28T05:47:06.224Z,15.87
2022-07-28T05:49:33.779Z,15.94
2022-07-28T05:52:00.424Z,16.06
2022-07-28T05:54:27.031Z,16.10
2022-07-28T05:56:53.640Z,16.05
2022-07-28T05:59:20.702Z,16.03
2022-07-28T06:01:47.435Z,16.10
2022-07-28T06:04:27.200Z,16.23
2022-07-28T06:06:55.035Z,16.38
2022-07-28T06:09:21.927Z,16.36
2022-07-28T06:11:50.223Z,16.38
2022-07-28T06:14:17.437Z,16.32
2022-07-28T06:16:44.920Z,16.42
2022-07-28T06:19:11.635Z,16.46
2022-07-28T06:21:38.315Z,16.53
2022-07-28T06:24:05.417Z,16.68
2022-07-28T06:26:32.024Z,16.53
2022-07-28T06:28:58.664Z,16.61
2022-07-28T06:31:25.483Z,16.74
2022-07-28T06:33:52.119Z,16.83
2022-07-28T06:36:18.733Z,16.78
2022-07-28T06:38:45.309Z,16.82
2022-07-28T06:41:12.107Z,16.83
2022-07-28T06:43:39.489Z,16.93
2022-07-28T06:46:06.820Z,17.05
2022-07-28T06:48:34.196Z,17.13
2022-07-28T06:51:01.169Z,17.18
2022-07-28T06:53:34.037Z,17.16
2022-07-28T06:56:02.198Z,17.10
2022-07-28T06:58:28.891Z,17.12
2022-07-28T07:00:55.561Z,17.08
2022-07-28T07:03:22.203Z,17.22
2022-07-28T07:05:51.529Z,17.22
2022-07-28T07:08:20.711Z,17.31
2022-07-28T07:10:47.319Z,17.40
2022-07-28T07:13:14.119Z,17.45
2022-07-28T07:15:40.950Z,17.46
2022-07-28T07:18:07.603Z,17.48
2022-07-28T07:20:34.195Z,17.40
2022-07-28T07:23:00.851Z,17.60
2022-07-28T07:25:27.521Z,17.62
2022-07-28T07:27:54.201Z,17.80
2022-07-28T07:30:20.871Z,17.96
2022-07-28T07:32:47.627Z,18.18
2022-07-28T07:35:14.344Z,18.10
2022-07-28T07:37:41.438Z,18.05
2022-07-28T07:40:08.604Z,18.04
2022-07-28T07:42:35.328Z,18.08
2022-07-28T07:45:01.963Z,18.15
2022-07-28T07:47:28.617Z,18.27
2022-07-28T07:49:55.248Z,18.33
2022-07-28T07:52:21.859Z,18.44
2022-07-28T07:54:48.520Z,18.57
2022-07-28T07:57:15.145Z,18.68
2022-07-28T07:59:41.781Z,18.71
2022-07-28T08:02:08.789Z,18.79
2022-07-28T08:04:37.480Z,18.71
2022-07-28T08:07:06.231Z,18.54
2022-07-28T08:09:34.156Z,18.49
2022-07-28T08:12:00.959Z,18.46
2022-07-28T08:14:27.644Z,18.47
2022-07-28T08:16:56.436Z,18.73
2022-07-28T08:19:23.117Z,18.59
2022-07-28T08:21:50.169Z,18.62
2022-07-28T08:24:32.339Z,18.83
2022-07-28T08:27:04.774Z,18.94
2022-07-28T08:29:31.516Z,18.93
2022-07-28T08:31:58.585Z,19.00
2022-07-28T08:34:31.638Z,19.07
2022-07-28T08:37:05.844Z,19.13
2022-07-28T08:39:34.297Z,19.10
2022-07-28T08:42:06.951Z,19.18
2022-07-28T08:44:45.677Z,19.34
2022-07-28T08:47:13.223Z,19.30
2022-07-28T08:49:42.600Z,19.40
2022-07-28T08:52:13.791Z,19.55
2022-07-28T08:54:48.883Z,19.56
2022-07-28T08:57:34.239Z,19.42
2022-07-28T09:00:01.466Z,19.40
2022-07-28T09:02:31.395Z,19.39
2022-07-28T09:04:59.538Z,19.53
2022-07-28T09:07:26.687Z,19.76
2022-07-28T09:09:57.257Z,19.76
2022-07-28T09:12:29.413Z,19.62
2022-07-28T09:14:56.049Z,19.68
2022-07-28T09:17:22.751Z,19.82
2022-07-28T09:19:49.418Z,19.82
2022-07-28T09:22:16.692Z,19.79
2022-07-28T09:24:46.485Z,19.93
2022-07-28T09:27:14.436Z,20.05
2022-07-28T09:29:45.697Z,20.11
2022-07-28T09:32:19.133Z,20.29
2022-07-28T09:34:51.635Z,20.22
2022-07-28T09:37:27.824Z,20.37
2022-07-28T09:39:59.593Z,20.33
2022-07-28T09:42:44.415Z,20.41
2022-07-28T09:45:25.755Z,20.46
2022-07-28T09:48:08.241Z,20.54
2022-07-28T09:50:34.948Z,20.45
2022-07-28T09:53:20.689Z,20.47
2022-07-28T09:56:01.646Z,20.41
2022-07-28T09:58:29.684Z,20.49
2022-07-28T10:01:15.328Z,20.45
2022-07-28T10:03:48.608Z,20.42
2022-07-28T10:06:16.409Z,20.65
2022-07-28T10:08:45.916Z,20.63
2022-07-28T10:11:15.681Z,20.66
2022-07-28T10:13:53.430Z,20.72
2022-07-28T10:16:21.221Z,20.73
2022-07-28T10:18:48.906Z,20.74
2022-07-28T10:21:18.574Z,20.75
2022-07-28T10:23:52.014Z,20.75
2022-07-28T10:26:21.955Z,20.87
2022-07-28T10:28:51.874Z,20.96
2022-07-28T10:31:52.476Z,20.99
2022-07-28T10:34:50.757Z,20.98
2022-07-28T10:37:21.717Z,21.13
2022-07-28T10:39:57.412Z,21.24
2022-07-28T10:42:24.449Z,21.21
2022-07-28T10:44:52.236Z,21.07
2022-07-28T10:47:20.666Z,21.11
2022-07-28T10:49:48.927Z,21.16
2022-07-28T10:55:21.712Z,21.17
2022-07-28T10:58:11.014Z,21.14
2022-07-28T11:01:04.730Z,21.24
2022-07-28T11:03:36.349Z,21.33
2022-07-28T11:06:31.971Z,21.30
2022-07-28T11:09:20.052Z,21.35
2022-07-28T11:11:54.680Z,21.54
2022-07-28T11:14:33.607Z,21.49
2022-07-28T11:17:00.315Z,21.35
2022-07-28T11:20:07.039Z,21.33
2022-07-28T11:22:34.310Z,21.39
2022-07-28T11:25:19.332Z,21.34
2022-07-28T11:27:49.645Z,21.49
2022-07-28T11:30:16.184Z,21.62
2022-07-28T11:32:53.262Z,21.58
2022-07-28T11:35:23.719Z,21.54
2022-07-28T11:38:02.445Z,21.55
2022-07-28T11:40:37.167Z,21.67
2022-07-28T11:43:28.657Z,21.80
2022-07-28T11:46:10.104Z,21.57
2022-07-28T11:48:39.571Z,21.74
2022-07-28T11:51:06.272Z,21.93
2022-07-28T11:53:34.424Z,22.02
2022-07-28T11:56:07.057Z,21.96
2022-07-28T11:58:34.501Z,22.05
2022-07-28T12:01:17.648Z,22.04
2022-07-28T12:03:50.430Z,21.97
2022-07-28T12:06:27.315Z,21.90
2022-07-28T12:09:02.563Z,21.91
2022-07-28T12:11:34.409Z,21.97
2022-07-28T12:14:13.903Z,22.08
2022-07-28T12:16:46.026Z,22.02
2022-07-28T12:19:17.718Z,22.00
2022-07-28T12:21:49.611Z,21.99
2022-07-28T12:24:45.718Z,22.06
2022-07-28T12:27:15.162Z,21.91
2022-07-28T12:29:42.402Z,22.05
2022-07-28T12:32:09.771Z,22.12
2022-07-28T12:34:39.959Z,22.37
2022-07-28T12:37:12.073Z,22.26
2022-07-28T12:39:41.875Z,22.20
2022-07-28T12:42:11.387Z,22.33
2022-07-28T12:44:40.263Z,22.41
2022-07-28T12:47:08.968Z,22.49
2022-07-28T12:49:36.901Z,22.58
2022-07-28T12:52:22.346Z,22.48
2022-07-28T12:54:55.660Z,22.40
2022-07-28T12:57:43.232Z,22.61
2022-07-28T13:00:15.322Z,22.76
2022-07-28T13:02:41.999Z,22.73
2022-07-28T13:05:08.900Z,22.71
2022-07-28T13:07:35.554Z,22.58
2022-07-28T13:10:12.465Z,22.75
2022-07-28T13:12:39.607Z,22.75
2022-07-28T13:15:16.931Z,22.75
2022-07-28T13:17:53.475Z,22.68
2022-07-28T13:20:22.166Z,22.46
2022-07-28T13:22:48.918Z,22.22
2022-07-28T13:25:15.828Z,22.44
2022-07-28T13:27:42.569Z,22.53
2022-07-28T13:30:10.447Z,22.61
2022-07-28T13:32:37.795Z,22.69
2022-07-28T13:35:05.522Z,22.93
2022-07-28T13:37:32.242Z,22.81
2022-07-28T13:40:01.691Z,22.90
2022-07-28T13:42:30.219Z,22.98
2022-07-28T13:44:56.873Z,23.06
2022-07-28T13:47:24.403Z,23.04
2022-07-28T13:49:51.011Z,23.02
2022-07-28T13:52:33.302Z,23.04
2022-07-28T13:55:03.992Z,22.96
2022-07-28T13:57:31.327Z,23.06
2022-07-28T14:00:05.764Z,23.17
2022-07-28T14:02:35.025Z,23.15
2022-07-28T14:05:01.757Z,23.29
2022-07-28T14:07:28.623Z,23.26
2022-07-28T14:09:55.204Z,23.17
2022-07-28T14:12:21.996Z,22.96
2022-07-28T14:14:49.022Z,22.96
2022-07-28T14:17:44.645Z,23.11
2022-07-28T14:20:13.355Z,23.18
2022-07-28T14:22:40.111Z,23.13
2022-07-28T14:25:07.414Z,23.09
2022-07-28T14:27:34.366Z,23.08
2022-07-28T14:30:03.567Z,23.07
2022-07-28T14:32:31.782Z,23.29
2022-07-28T14:34:58.440Z,23.39
2022-07-28T14:37:25.294Z,23.46
2022-07-28T14:39:51.886Z,23.54
2022-07-28T14:42:18.973Z,23.42
2022-07-28T14:44:45.613Z,23.41
2022-07-28T14:47:12.454Z,23.50
2022-07-28T14:49:57.131Z,23.73
2022-07-28T14:52:25.603Z,23.74
2022-07-28T14:54:52.708Z,23.60
2022-07-28T14:57:19.345Z,23.59
2022-07-28T14:59:45.946Z,23.52
2022-07-28T15:02:13.514Z,23.53
2022-07-28T15:04:40.320Z,23.42
2022-07-28T15:07:07.375Z,23.47
2022-07-28T15:09:42.805Z,23.48
2022-07-28T15:12:11.768Z,23.37
2022-07-28T15:14:38.492Z,23.38
2022-07-28T15:17:05.179Z,23.36
2022-07-28T15:19:34.116Z,23.34
2022-07-28T15:22:01.284Z,23.52
2022-07-28T15:24:30.493Z,23.51
2022-07-28T15:26:57.677Z,23.60
2022-07-28T15:29:24.413Z,23.54
2022-07-28T15:31:52.531Z,23.71
2022-07-28T15:34:19.493Z,23.59
2022-07-28T15:36:46.531Z,23.53
2022-07-28T15:39:16.405Z,23.55
2022-07-28T15:41:44.868Z,23.50
2022-07-28T15:44:13.960Z,23.41
2022-07-28T15:46:41.472Z,23.40
2022-07-28T15:49:10.921Z,23.29
2022-07-28T15:51:38.912Z,23.27
2022-07-28T15:54:06.894Z,23.43
2022-07-28T15:56:36.153Z,23.46
2022-07-28T15:59:04.674Z,23.45
2022-07-28T16:01:31.370Z,23.43
2022-07-28T16:03:59.618Z,23.37
2022-07-28T16:06:51.580Z,23.54
2022-07-28T16:09:18.568Z,23.55
2022-07-28T16:11:45.862Z,23.65
2022-07-28T16:14:12.758Z,23.57
2022-07-28T16:16:39.727Z,23.43
2022-07-28T16:19:25.084Z,23.37
2022-07-28T16:21:55.133Z,23.51
2022-07-28T16:24:21.762Z,23.41
2022-07-28T16:26:48.428Z,23.25
2022-07-28T16:29:15.118Z,23.28
2022-07-28T16:31:45.213Z,23.37
2022-07-28T16:34:12.529Z,23.37
2022-07-28T16:36:42.227Z,23.36
2022-07-28T16:39:09.460Z,23.45
2022-07-28T16:41:46.732Z,23.35
2022-07-28T16:44:14.433Z,23.26
2022-07-28T16:46:42.061Z,23.40
2022-07-28T16:49:08.828Z,23.30
2022-07-28T16:51:35.669Z,23.41
2022-07-28T16:54:02.556Z,23.27
2022-07-28T16:56:29.313Z,23.28
2022-07-28T16:58:56.902Z,23.35
2022-07-28T17:01:23.540Z,23.29
2022-07-28T17:03:50.211Z,23.30
2022-07-28T17:06:17.081Z,23.26
2022-07-28T17:08:43.757Z,23.41
2022-07-28T17:11:10.400Z,23.44
2022-07-28T17:13:39.765Z,23.50
2022-07-28T17:16:08.809Z,23.49
2022-07-28T17:18:35.402Z,23.34
2022-07-28T17:21:02.076Z,23.30
2022-07-28T17:23:28.704Z,23.30
2022-07-28T17:26:51.584Z,23.36
2022-07-28T17:28:42.838Z,23.38
2022-07-28T17:31:09.608Z,23.38
2022-07-28T17:33:36.404Z,23.28
2022-07-28T17:36:03.508Z,23.33
2022-07-28T17:38:33.231Z,23.18
2022-07-28T17:41:03.651Z,23.15
2022-07-28T17:43:31.640Z,23.11
2022-07-28T17:45:58.317Z,23.24
2022-07-28T17:48:28.393Z,23.25
2022-07-28T17:50:54.981Z,23.25
2022-07-28T17:53:23.445Z,23.15
2022-07-28T17:56:00.798Z,23.23
2022-07-28T17:58:30.981Z,23.18
2022-07-28T18:01:09.341Z,23.29
2022-07-28T18:03:58.940Z,23.14
2022-07-28T18:06:30.247Z,23.19
2022-07-28T18:09:03.745Z,23.09
2022-07-28T18:11:57.270Z,22.95
2022-07-28T18:14:27.234Z,22.83
2022-07-28T18:16:53.970Z,22.86
2022-07-28T18:19:20.662Z,23.02
2022-07-28T18:21:47.277Z,23.04
2022-07-28T18:24:14.275Z,23.02
2022-07-28T18:26:41.068Z,23.08
2022-07-28T18:29:07.702Z,23.16
2022-07-28T18:31:34.298Z,23.13
2022-07-28T18:34:01.518Z,23.12
2022-07-28T18:36:28.152Z,23.14
2022-07-28T18:38:54.828Z,23.02
2022-07-28T18:41:21.901Z,22.86
2022-07-28T18:43:48.684Z,22.83
2022-07-28T18:46:15.431Z,22.69
2022-07-28T18:48:42.203Z,22.91
2022-07-28T18:51:08.800Z,22.99
2022-07-28T18:53:36.286Z,22.88
2022-07-28T18:56:02.933Z,22.67
2022-07-28T18:58:29.712Z,22.72
2022-07-28T19:00:56.565Z,22.91
2022-07-28T19:03:23.150Z,22.92
2022-07-28T19:05:50.173Z,22.71
2022-07-28T19:08:17.166Z,22.68
2022-07-28T19:10:44.054Z,22.47
2022-07-28T19:13:12.924Z,22.37
2022-07-28T19:15:41.098Z,22.31
2022-07-28T19:18:10.467Z,22.14
2022-07-28T19:20:39.980Z,22.06
2022-07-28T19:23:06.807Z,22.16
2022-07-28T19:25:35.717Z,22.22
2022-07-28T19:28:02.468Z,22.21
2022-07-28T19:30:30.700Z,22.23
2022-07-28T19:32:58.173Z,22.21
2022-07-28T19:35:24.770Z,22.32
2022-07-28T19:37:51.472Z,22.21
2022-07-28T19:40:18.311Z,22.23
2022-07-28T19:42:46.957Z,22.02
2022-07-28T19:45:14.180Z,22.07
2022-07-28T19:47:40.730Z,22.11
2022-07-28T19:50:07.516Z,21.84
2022-07-28T19:52:34.632Z,21.99
2022-07-28T19:55:05.390Z,21.97
2022-07-28T19:57:34.168Z,21.88
2022-07-28T20:00:04.708Z,21.86
2022-07-28T20:02:39.042Z,22.05
2022-07-28T20:05:07.065Z,22.01
2022-07-28T20:07:33.795Z,22.07
2022-07-28T20:10:00.992Z,21.99
2022-07-28T20:12:32.789Z,22.16
2022-07-28T20:15:03.795Z,22.19
2022-07-28T20:17:38.404Z,22.08
2022-07-28T20:20:09.492Z,21.90
2022-07-28T20:22:36.511Z,21.83
2022-07-28T20:25:04.509Z,21.74
2022-07-28T20:27:31.382Z,21.73
2022-07-28T20:30:08.984Z,21.71
2022-07-28T20:32:36.828Z,21.76
2022-07-28T20:35:07.134Z,21.89
2022-07-28T20:37:36.453Z,21.88
2022-07-28T20:40:05.118Z,21.97
2022-07-28T20:42:31.748Z,21.82
2022-07-28T20:44:58.364Z,21.96
2022-07-28T20:47:25.981Z,21.95
2022-07-28T20:49:53.390Z,21.83
2022-07-28T20:52:19.947Z,21.67
2022-07-28T20:54:50.616Z,21.83
2022-07-28T20:57:20.394Z,21.83
2022-07-28T20:59:48.820Z,21.88
2022-07-28T21:02:15.547Z,21.96
2022-07-28T21:04:42.434Z,21.84
2022-07-28T21:07:10.771Z,21.44
2022-07-28T21:09:37.487Z,21.57
2022-07-28T21:12:04.691Z,21.42
2022-07-28T21:14:32.534Z,21.36
2022-07-28T21:16:59.817Z,21.66
2022-07-28T21:19:26.512Z,21.70
2022-07-28T21:21:53.215Z,21.61
2022-07-28T21:24:19.824Z,21.59
2022-07-28T21:26:46.641Z,21.54
2022-07-28T21:32:03.596Z,21.88
2022-07-28T21:34:32.041Z,21.80
2022-07-28T21:37:02.036Z,21.59
2022-07-28T21:39:28.701Z,21.46
2022-07-28T21:41:55.293Z,21.47
2022-07-28T21:44:21.978Z,21.64
2022-07-28T21:46:48.657Z,21.59
2022-07-28T21:49:15.428Z,21.44
2022-07-28T21:51:42.356Z,21.53
2022-07-28T21:54:09.070Z,21.43
2022-07-28T21:56:35.704Z,21.51
2022-07-28T21:59:03.435Z,21.41
2022-07-28T22:01:30.296Z,21.43
2022-07-28T22:03:57.212Z,21.41
2022-07-28T22:06:23.971Z,21.63
2022-07-28T22:08:53.684Z,21.70
2022-07-28T22:11:21.937Z,21.68
2022-07-28T22:13:48.756Z,21.65
2022-07-28T22:16:15.502Z,21.44
2022-07-28T22:18:42.282Z,21.39
2022-07-28T22:21:08.945Z,21.48
2022-07-28T22:23:35.621Z,21.34
2022-07-28T22:26:02.939Z,21.35
2022-07-28T22:28:30.730Z,21.25
2022-07-28T22:31:09.558Z,21.23
2022-07-28T22:33:39.971Z,21.46
2022-07-28T22:36:08.779Z,21.44
2022-07-28T22:38:35.845Z,21.30
2022-07-28T22:41:02.563Z,20.91
2022-07-28T22:43:33.165Z,20.93
2022-07-28T22:45:59.931Z,21.26
2022-07-28T22:48:26.765Z,21.26
2022-07-28T22:50:53.357Z,21.01
2022-07-28T22:53:19.988Z,21.00
2022-07-28T22:55:46.719Z,21.19
2022-07-28T22:58:13.299Z,20.94
2022-07-28T23:00:40.015Z,20.78
2022-07-28T23:03:06.701Z,20.93
2022-07-28T23:05:35.152Z,21.02
2022-07-28T23:08:01.743Z,20.88
2022-07-28T23:10:29.572Z,21.02
2022-07-28T23:12:58.535Z,21.15
2022-07-28T23:15:40.078Z,20.95
2022-07-28T23:18:13.930Z,20.86
2022-07-28T23:20:41.492Z,20.73
2022-07-28T23:23:08.866Z,20.88
2022-07-28T23:25:36.893Z,20.87
2022-07-28T23:28:03.655Z,20.76
2022-07-28T23:30:30.352Z,20.74
2022-07-28T23:32:56.995Z,20.89
2022-07-28T23:35:23.875Z,20.74
2022-07-28T23:37:50.508Z,20.72
2022-07-28T23:40:17.281Z,20.73
2022-07-28T23:42:43.936Z,20.68
2022-07-28T23:45:10.886Z,20.56
2022-07-28T23:47:37.467Z,20.57
2022-07-28T23:50:05.120Z,20.59
2022-07-28T23:52:31.768Z,20.45
2022-07-28T23:54:58.402Z,20.41
2022-07-28T23:57:25.068Z,20.57
2022-07-28T23:59:58.580Z,20.66
